createdAt,value
2022-07-30T00:02:20.984Z,2.40
2022-07-30T00:04:49.215Z,1.90
2022-07-30T00:07:18.833Z,2.13
2022-07-30T00:09:47.073Z,2.67
2022-07-30T00:12:15.560Z,1.93
2022-07-30T00:14:43.804Z,1.70
2022-07-30T00:17:12.035Z,1.87
2022-07-30T00:19:40.335Z,2.43
2022-07-30T00:22:08.528Z,2.20
2022-07-30T00:24:38.135Z,1.80
2022-07-30T00:27:06.841Z,1.90
2022-07-30T00:29:35.220Z,1.67
2022-07-30T00:32:05.619Z,2.10
2022-07-30T00:34:33.857Z,1.90
2022-07-30T00:37:02.557Z,1.70
2022-07-30T00:39:31.103Z,1.90
2022-07-30T00:42:02.020Z,2.40
2022-07-30T00:44:30.649Z,3.10
2022-07-30T00:46:59.300Z,2.13
2022-07-30T00:49:27.882Z,1.97
2022-07-30T00:51:56.109Z,2.10
2022-07-30T00:54:24.389Z,2.20
2022-07-30T00:56:52.884Z,2.50
2022-07-30T00:59:22.541Z,2.30
2022-07-30T01:01:50.895Z,2.37
2022-07-30T01:04:19.136Z,2.03
2022-07-30T01:06:47.341Z,2.13
2022-07-30T01:09:15.807Z,2.03
2022-07-30T01:11:44.103Z,2.00
2022-07-30T01:14:12.359Z,2.30
2022-07-30T01:16:43.247Z,1.90
2022-07-30T01:19:34.232Z,2.40
2022-07-30T01:22:10.534Z,2.03
2022-07-30T01:24:42.525Z,2.07
2022-07-30T01:27:13.970Z,2.00
2022-07-30T01:29:43.967Z,2.00
2022-07-30T01:32:12.266Z,1.90
2022-07-30T01:34:40.519Z,2.13
2022-07-30T01:37:09.576Z,1.63
2022-07-30T01:39:38.317Z,2.40
2022-07-30T01:42:08.488Z,2.00
2022-07-30T01:44:38.170Z,1.93
2022-07-30T01:47:06.699Z,1.80
2022-07-30T01:49:35.112Z,1.73
2022-07-30T01:52:03.714Z,1.70
2022-07-30T01:54:32.021Z,2.07
2022-07-30T01:57:00.840Z,2.67
2022-07-30T01:59:29.536Z,2.13
2022-07-30T02:01:59.638Z,2.20
2022-07-30T02:04:28.263Z,2.10
2022-07-30T02:07:01.629Z,2.00
2022-07-30T02:09:35.553Z,1.90
2022-07-30T02:12:23.074Z,1.83
2022-07-30T02:14:53.459Z,2.00
2022-07-30T02:17:30.459Z,2.00
2022-07-30T02:20:09.236Z,2.43
2022-07-30T02:22:40.604Z,1.67
2022-07-30T02:25:10.604Z,2.23
2022-07-30T02:27:40.500Z,2.00
2022-07-30T02:30:10.738Z,2.80
2022-07-30T02:32:42.132Z,2.43
2022-07-30T02:35:14.898Z,2.17
2022-07-30T02:37:44.480Z,2.13
2022-07-30T02:40:15.854Z,2.13
2022-07-30T02:42:44.741Z,1.97
2022-07-30T02:45:13.535Z,2.20
2022-07-30T02:47:43.093Z,2.50
2022-07-30T02:50:11.676Z,2.53
2022-07-30T02:52:39.974Z,2.00
2022-07-30T02:55:09.835Z,2.23
2022-07-30T02:57:43.248Z,2.60
2022-07-30T03:00:13.318Z,2.83
2022-07-30T03:02:43.928Z,2.37
2022-07-30T03:05:12.152Z,2.27
2022-07-30T03:07:40.420Z,1.80
2022-07-30T03:10:09.756Z,2.47
2022-07-30T03:12:37.992Z,2.00
2022-07-30T03:15:07.791Z,1.90
2022-07-30T03:17:39.348Z,2.30
2022-07-30T03:20:11.747Z,2.03
2022-07-30T03:22:45.382Z,1.60
2022-07-30T03:25:15.522Z,2.00
2022-07-30T03:27:44.102Z,2.10
2022-07-30T03:30:13.515Z,1.70
2022-07-30T03:32:42.887Z,1.87
2022-07-30T03:35:17.507Z,2.20
2022-07-30T03:37:48.618Z,1.87
2022-07-30T03:40:17.006Z,1.67
2022-07-30T03:42:45.563Z,1.83
2022-07-30T03:45:14.490Z,1.87
2022-07-30T03:47:43.134Z,1.60
2022-07-30T03:50:13.749Z,1.50
2022-07-30T03:52:42.150Z,2.17
2022-07-30T03:55:11.957Z,1.40
2022-07-30T03:57:40.248Z,1.53
2022-07-30T04:00:13.993Z,1.73
2022-07-30T04:02:43.571Z,1.80
2022-07-30T04:05:13.437Z,1.70
2022-07-30T04:07:45.189Z,1.83
2022-07-30T04:10:13.809Z,1.60
2022-07-30T04:12:42.051Z,2.00
2022-07-30T04:16:37.261Z,2.00
2022-07-30T04:18:03.189Z,1.67
2022-07-30T04:20:35.715Z,1.33
2022-07-30T04:23:04.009Z,1.20
2022-07-30T04:25:32.403Z,1.80
2022-07-30T04:28:03.814Z,1.63
2022-07-30T04:30:33.349Z,1.70
2022-07-30T04:33:01.608Z,1.50
2022-07-30T04:35:51.098Z,1.90
2022-07-30T04:38:19.627Z,1.50
2022-07-30T04:40:48.047Z,1.50
2022-07-30T04:43:16.265Z,1.90
2022-07-30T04:45:44.924Z,1.90
2022-07-30T04:48:13.141Z,1.40
2022-07-30T04:50:43.709Z,1.37
2022-07-30T04:53:11.987Z,2.03
2022-07-30T04:55:43.914Z,1.73
2022-07-30T04:58:12.285Z,2.37
2022-07-30T05:00:41.384Z,1.53
2022-07-30T05:03:09.977Z,1.47
2022-07-30T05:05:38.269Z,1.33
2022-07-30T05:08:06.756Z,1.70
2022-07-30T05:10:34.968Z,2.00
2022-07-30T05:13:04.604Z,1.60
2022-07-30T05:15:37.425Z,2.00
2022-07-30T05:18:06.169Z,1.87
2022-07-30T05:20:34.439Z,1.60
2022-07-30T05:23:02.601Z,1.77
2022-07-30T05:25:30.857Z,1.47
2022-07-30T05:27:59.172Z,1.80
2022-07-30T05:30:28.836Z,1.50
2022-07-30T05:32:57.488Z,1.70
2022-07-30T05:35:25.894Z,1.50
2022-07-30T05:37:54.161Z,1.50
2022-07-30T05:40:22.731Z,1.43
2022-07-30T05:42:50.970Z,1.50
2022-07-30T05:45:19.244Z,1.43
2022-07-30T05:47:49.252Z,1.40
2022-07-30T05:50:17.510Z,1.00
2022-07-30T05:52:45.713Z,2.10
2022-07-30T05:55:13.961Z,1.20
2022-07-30T05:57:42.360Z,1.40
2022-07-30T06:00:12.096Z,1.20
2022-07-30T06:02:40.763Z,1.10
2022-07-30T06:05:10.657Z,1.57
2022-07-30T06:07:39.061Z,1.13
2022-07-30T06:10:08.223Z,2.03
2022-07-30T06:12:36.403Z,1.83
2022-07-30T06:15:04.986Z,1.20
2022-07-30T06:17:41.285Z,1.70
2022-07-30T06:20:12.817Z,1.20
2022-07-30T06:22:41.103Z,1.60
2022-07-30T06:25:10.049Z,1.50
2022-07-30T06:27:39.918Z,1.17
2022-07-30T06:30:10.114Z,1.13
2022-07-30T06:32:38.338Z,1.47
2022-07-30T06:35:07.798Z,1.40
2022-07-30T06:37:58.652Z,1.10
2022-07-30T06:40:25.785Z,1.43
2022-07-30T06:42:54.012Z,1.17
2022-07-30T06:45:22.327Z,1.30
2022-07-30T06:47:50.578Z,1.57
2022-07-30T06:50:20.337Z,1.20
2022-07-30T06:52:49.933Z,2.00
2022-07-30T06:55:18.458Z,1.37
2022-07-30T06:57:46.638Z,1.10
2022-07-30T07:00:15.670Z,1.67
2022-07-30T07:02:43.897Z,1.57
2022-07-30T07:05:12.146Z,1.17
2022-07-30T07:07:46.325Z,2.00
2022-07-30T07:10:22.187Z,1.50
2022-07-30T07:12:50.502Z,1.43
2022-07-30T07:15:18.878Z,1.60
2022-07-30T07:17:51.295Z,1.10
2022-07-30T07:20:19.532Z,1.30
2022-07-30T07:22:47.742Z,1.83
2022-07-30T07:25:16.081Z,1.30
2022-07-30T07:27:45.662Z,1.43
2022-07-30T07:30:34.003Z,1.50
2022-07-30T07:33:02.276Z,1.20
2022-07-30T07:35:30.496Z,1.10
2022-07-30T07:37:59.046Z,1.10
2022-07-30T07:40:27.406Z,1.50
2022-07-30T07:42:56.968Z,1.10
2022-07-30T07:45:25.493Z,1.03
2022-07-30T07:47:53.723Z,1.83
2022-07-30T07:50:22.034Z,1.10
2022-07-30T07:52:50.518Z,1.40
2022-07-30T07:55:18.813Z,1.20
2022-07-30T07:57:47.222Z,1.43
2022-07-30T08:00:19.113Z,1.10
2022-07-30T08:02:47.558Z,1.23
2022-07-30T08:05:15.991Z,1.00
2022-07-30T08:07:44.641Z,1.27
2022-07-30T08:10:15.106Z,1.10
2022-07-30T08:12:44.133Z,1.37
2022-07-30T08:15:12.569Z,1.00
2022-07-30T08:17:45.740Z,1.23
2022-07-30T08:20:15.654Z,1.30
2022-07-30T08:22:43.930Z,1.10
2022-07-30T08:25:21.722Z,1.30
2022-07-30T08:27:50.786Z,1.07
2022-07-30T08:30:21.042Z,1.53
2022-07-30T08:32:50.770Z,1.33
2022-07-30T08:35:19.046Z,1.50
2022-07-30T08:37:47.343Z,1.20
2022-07-30T08:40:15.616Z,1.17
2022-07-30T08:42:43.856Z,1.10
2022-07-30T08:45:12.359Z,1.20
2022-07-30T08:47:41.885Z,1.93
2022-07-30T08:50:11.625Z,1.20
2022-07-30T08:52:45.046Z,1.53
2022-07-30T08:55:13.305Z,1.60
2022-07-30T08:57:41.507Z,1.33
2022-07-30T09:00:11.961Z,2.07
2022-07-30T09:02:40.240Z,1.27
2022-07-30T09:05:10.913Z,1.57
2022-07-30T09:07:39.412Z,1.60
2022-07-30T09:10:08.687Z,1.20
2022-07-30T09:12:39.747Z,1.40
2022-07-30T09:15:14.139Z,1.90
2022-07-30T09:17:51.387Z,1.50
2022-07-30T09:20:21.202Z,1.40
2022-07-30T09:22:51.782Z,1.47
2022-07-30T09:25:35.614Z,1.10
2022-07-30T09:28:03.958Z,1.47
2022-07-30T09:30:46.585Z,1.17
2022-07-30T09:33:14.936Z,1.30
2022-07-30T09:35:44.616Z,1.57
2022-07-30T09:38:13.052Z,1.60
2022-07-30T09:40:42.966Z,1.73
2022-07-30T09:43:12.244Z,1.17
2022-07-30T09:45:56.665Z,1.10
2022-07-30T09:48:27.965Z,1.47
2022-07-30T09:50:57.847Z,1.20
2022-07-30T09:53:26.413Z,1.23
2022-07-30T09:55:54.690Z,1.40
2022-07-30T09:58:27.149Z,1.03
2022-07-30T10:00:58.408Z,1.77
2022-07-30T10:03:34.328Z,1.20
2022-07-30T10:06:11.926Z,1.07
2022-07-30T10:08:42.635Z,1.70
2022-07-30T10:11:15.887Z,1.63
2022-07-30T10:13:45.775Z,1.60
2022-07-30T10:16:14.259Z,1.20
2022-07-30T10:18:45.176Z,1.80
2022-07-30T10:21:16.916Z,1.40
2022-07-30T10:23:46.035Z,1.20
2022-07-30T10:26:19.051Z,1.50
2022-07-30T10:28:48.089Z,1.47
2022-07-30T10:31:49.159Z,1.30
2022-07-30T10:34:04.656Z,1.43
2022-07-30T10:36:34.506Z,1.30
2022-07-30T10:39:03.018Z,1.40
2022-07-30T10:41:48.033Z,1.20
2022-07-30T10:44:42.048Z,1.60
2022-07-30T10:47:14.054Z,1.23
2022-07-30T10:49:43.159Z,1.40
2022-07-30T10:52:13.163Z,1.50
2022-07-30T10:54:44.407Z,1.30
2022-07-30T10:57:22.695Z,1.57
2022-07-30T11:00:13.559Z,1.40
2022-07-30T11:03:18.059Z,1.00
2022-07-30T11:05:50.251Z,1.40
2022-07-30T11:08:42.851Z,1.30
2022-07-30T11:12:01.821Z,1.33
2022-07-30T11:15:07.360Z,1.10
2022-07-30T11:18:12.143Z,1.13
2022-07-30T11:20:41.411Z,1.47
2022-07-30T11:23:40.588Z,1.03
2022-07-30T11:26:14.157Z,1.40
2022-07-30T11:28:45.131Z,1.10
2022-07-30T11:32:07.392Z,1.03
2022-07-30T11:34:31.323Z,1.20
2022-07-30T11:37:19.076Z,1.10
2022-07-30T11:40:12.639Z,1.00
2022-07-30T11:42:42.628Z,1.60
2022-07-30T11:45:32.961Z,0.97
2022-07-30T11:48:01.569Z,0.93
2022-07-30T11:50:32.111Z,1.17
2022-07-30T11:53:02.033Z,1.60
2022-07-30T11:55:33.614Z,0.83
2022-07-30T11:58:03.510Z,1.00
2022-07-30T12:00:39.761Z,0.80
2022-07-30T12:03:12.600Z,1.23
2022-07-30T12:05:41.005Z,1.13
2022-07-30T12:08:09.367Z,1.17
2022-07-30T12:11:00.715Z,0.80
2022-07-30T12:13:45.084Z,0.93
2022-07-30T12:16:15.922Z,1.10
2022-07-30T12:18:44.323Z,1.13
2022-07-30T12:21:13.653Z,1.00
2022-07-30T12:23:43.568Z,1.23
2022-07-30T12:26:23.308Z,1.00
2022-07-30T12:28:52.725Z,1.13
2022-07-30T12:31:21.066Z,1.10
2022-07-30T12:33:49.372Z,1.00
2022-07-30T12:36:31.803Z,0.80
2022-07-30T12:39:00.225Z,1.00
2022-07-30T12:41:45.778Z,0.87
2022-07-30T12:44:36.029Z,0.97
2022-07-30T12:47:05.229Z,1.23
2022-07-30T12:49:39.381Z,1.10
2022-07-30T12:52:28.187Z,1.30
2022-07-30T12:55:06.549Z,1.07
2022-07-30T12:58:02.985Z,1.00
2022-07-30T13:00:48.241Z,1.00
2022-07-30T13:03:22.489Z,0.93
2022-07-30T13:05:51.689Z,1.03
2022-07-30T13:09:03.080Z,0.70
2022-07-30T13:11:39.898Z,0.90
2022-07-30T13:14:10.874Z,0.80
2022-07-30T13:16:39.403Z,1.00
2022-07-30T13:19:08.054Z,0.70
2022-07-30T13:21:36.382Z,1.00
2022-07-30T13:24:05.024Z,1.00
2022-07-30T13:26:34.559Z,1.07
2022-07-30T13:29:02.945Z,0.87
2022-07-30T13:31:42.950Z,0.80
2022-07-30T13:34:11.933Z,0.93
2022-07-30T13:36:40.351Z,0.87
2022-07-30T13:39:08.639Z,0.80
2022-07-30T13:41:37.030Z,0.87
2022-07-30T13:44:05.781Z,1.20
2022-07-30T13:46:35.403Z,0.90
2022-07-30T13:49:04.570Z,0.70
2022-07-30T13:51:32.878Z,1.00
2022-07-30T13:54:01.090Z,0.97
2022-07-30T13:56:29.328Z,0.90
2022-07-30T13:58:57.579Z,0.90
2022-07-30T14:01:25.834Z,0.80
2022-07-30T14:03:55.417Z,1.10
2022-07-30T14:06:23.786Z,0.70
2022-07-30T14:08:52.044Z,0.90
2022-07-30T14:11:20.305Z,0.80
2022-07-30T14:13:48.566Z,0.90
2022-07-30T14:16:35.733Z,1.23
2022-07-30T14:19:07.494Z,1.10
2022-07-30T14:21:35.744Z,0.83
2022-07-30T14:24:06.128Z,1.47
2022-07-30T14:26:36.812Z,1.40
2022-07-30T14:29:05.160Z,0.80
2022-07-30T14:31:33.454Z,0.83
2022-07-30T14:34:01.842Z,0.80
2022-07-30T14:36:31.442Z,0.83
2022-07-30T14:38:59.816Z,0.90
2022-07-30T14:41:28.363Z,1.20
2022-07-30T14:43:56.791Z,0.90
2022-07-30T14:46:25.000Z,0.80
2022-07-30T14:48:53.278Z,1.20
2022-07-30T14:51:26.640Z,0.70
2022-07-30T14:53:57.607Z,1.10
2022-07-30T14:56:26.107Z,0.60
2022-07-30T14:58:55.054Z,0.90
2022-07-30T15:01:23.446Z,1.07
2022-07-30T15:03:51.778Z,1.00
2022-07-30T15:06:19.970Z,0.90
2022-07-30T15:08:48.665Z,0.93
2022-07-30T15:11:18.271Z,1.07
2022-07-30T15:13:50.841Z,0.90
2022-07-30T15:16:19.284Z,4.77
2022-07-30T15:18:47.534Z,1.57
2022-07-30T15:21:15.829Z,0.90
2022-07-30T15:23:44.144Z,0.90
2022-07-30T15:26:12.352Z,1.40
2022-07-30T15:28:42.061Z,1.10
2022-07-30T15:31:10.272Z,1.43
2022-07-30T15:33:41.912Z,1.30
2022-07-30T15:36:10.292Z,1.00
2022-07-30T15:38:38.662Z,1.03
2022-07-30T15:41:09.317Z,0.70
2022-07-30T15:43:42.701Z,1.17
2022-07-30T15:46:10.979Z,0.70
2022-07-30T15:48:39.206Z,0.90
2022-07-30T15:51:07.906Z,1.40
2022-07-30T15:53:36.178Z,1.27
2022-07-30T15:56:04.569Z,1.80
2022-07-30T15:58:32.759Z,1.87
2022-07-30T16:01:02.715Z,1.13
2022-07-30T16:03:31.031Z,1.00
2022-07-30T16:05:59.209Z,0.80
2022-07-30T16:08:27.496Z,0.97
2022-07-30T16:10:55.774Z,0.90
2022-07-30T16:13:24.004Z,1.30
2022-07-30T16:15:52.698Z,41.53
2022-07-30T16:18:22.362Z,27.40
2022-07-30T16:20:50.563Z,24.63
2022-07-30T16:23:21.460Z,28.97
2022-07-30T16:25:50.072Z,19.13
2022-07-30T16:28:18.276Z,5.90
2022-07-30T16:30:50.930Z,1.57
2022-07-30T16:33:21.329Z,1.40
2022-07-30T16:35:51.233Z,1.37
2022-07-30T16:38:20.231Z,1.30
2022-07-30T16:40:48.585Z,1.00
2022-07-30T16:43:19.590Z,0.80
2022-07-30T16:45:48.599Z,1.00
2022-07-30T16:48:16.827Z,1.00
2022-07-30T16:50:46.475Z,0.90
2022-07-30T16:53:14.979Z,0.90
2022-07-30T16:55:43.463Z,1.20
2022-07-30T16:58:11.819Z,1.03
2022-07-30T17:00:40.106Z,1.10
2022-07-30T17:03:08.643Z,1.40
2022-07-30T17:05:37.790Z,1.30
2022-07-30T17:08:14.888Z,1.03
2022-07-30T17:10:46.080Z,1.40
2022-07-30T17:13:16.168Z,1.30
2022-07-30T17:15:44.511Z,1.47
2022-07-30T17:18:15.037Z,1.30
2022-07-30T17:20:43.354Z,1.20
2022-07-30T17:23:11.614Z,1.20
2022-07-30T17:25:41.224Z,1.10
2022-07-30T17:28:09.430Z,1.30
2022-07-30T17:30:37.596Z,1.30
2022-07-30T17:33:06.432Z,1.13
2022-07-30T17:35:34.804Z,1.20
2022-07-30T17:38:03.108Z,1.10
2022-07-30T17:40:32.080Z,1.80
2022-07-30T17:43:04.632Z,1.93
2022-07-30T17:45:33.127Z,2.30
2022-07-30T17:48:01.617Z,2.53
2022-07-30T17:50:30.160Z,2.13
2022-07-30T17:52:58.405Z,1.80
2022-07-30T17:55:29.085Z,1.70
2022-07-30T17:57:57.313Z,1.50
2022-07-30T18:00:26.867Z,1.67
2022-07-30T18:02:55.117Z,1.77
2022-07-30T18:05:23.326Z,1.50
2022-07-30T18:07:51.967Z,1.40
2022-07-30T18:10:20.265Z,1.40
2022-07-30T18:12:49.589Z,1.67
2022-07-30T18:15:18.182Z,1.43
2022-07-30T18:17:47.826Z,1.50
2022-07-30T18:20:16.276Z,1.20
2022-07-30T18:22:44.474Z,1.50
2022-07-30T18:25:18.927Z,1.50
2022-07-30T18:27:47.736Z,1.50
2022-07-30T18:30:16.407Z,1.30
2022-07-30T18:32:44.693Z,1.23
2022-07-30T18:35:15.311Z,1.63
2022-07-30T18:37:43.751Z,1.37
2022-07-30T18:40:13.733Z,1.67
2022-07-30T18:42:41.975Z,1.77
2022-07-30T18:45:14.710Z,1.50
2022-07-30T18:47:43.168Z,1.50
2022-07-30T18:50:13.574Z,1.20
2022-07-30T18:52:41.930Z,1.70
2022-07-30T18:55:11.462Z,1.30
2022-07-30T18:57:39.828Z,1.27
2022-07-30T19:00:10.030Z,1.50
2022-07-30T19:02:58.243Z,1.87
2022-07-30T19:05:28.065Z,2.40
2022-07-30T19:07:58.014Z,1.80
2022-07-30T19:10:27.201Z,1.80
2022-07-30T19:12:55.627Z,2.27
2022-07-30T19:15:24.009Z,2.43
2022-07-30T19:17:52.309Z,2.10
2022-07-30T19:20:20.909Z,2.30
2022-07-30T19:22:50.536Z,1.80
2022-07-30T19:25:20.914Z,2.80
2022-07-30T19:27:49.144Z,2.87
2022-07-30T19:30:17.405Z,2.97
2022-07-30T19:32:45.840Z,2.40
2022-07-30T19:35:14.629Z,2.70
2022-07-30T19:37:43.418Z,2.17
2022-07-30T19:40:14.356Z,3.30
2022-07-30T19:42:42.736Z,2.43
2022-07-30T19:45:13.198Z,2.70
2022-07-30T19:47:42.314Z,2.10
2022-07-30T19:50:11.418Z,2.43
2022-07-30T19:52:39.986Z,2.43
2022-07-30T19:55:35.051Z,2.00
2022-07-30T19:58:05.333Z,1.90
2022-07-30T20:00:49.553Z,2.13
2022-07-30T20:03:26.122Z,1.97
2022-07-30T20:05:59.976Z,2.10
2022-07-30T20:08:28.314Z,2.20
2022-07-30T20:10:59.276Z,1.90
2022-07-30T20:13:45.507Z,1.60
2022-07-30T20:16:15.347Z,2.10
2022-07-30T20:21:56.442Z,2.07
2022-07-30T20:24:21.815Z,1.60
2022-07-30T20:26:51.462Z,1.40
2022-07-30T20:29:20.809Z,1.87
2022-07-30T20:31:50.138Z,1.80
2022-07-30T20:34:23.341Z,1.63
2022-07-30T20:36:52.044Z,1.50
2022-07-30T20:39:22.126Z,1.70
2022-07-30T20:42:07.464Z,1.23
2022-07-30T20:44:37.781Z,1.50
2022-07-30T20:47:08.109Z,1.27
2022-07-30T20:49:36.874Z,1.17
2022-07-30T20:52:05.999Z,1.10
2022-07-30T20:54:34.408Z,1.37
2022-07-30T20:57:06.396Z,1.20
2022-07-30T20:59:35.618Z,1.70
2022-07-30T21:02:04.205Z,1.70
2022-07-30T21:04:32.719Z,1.40
2022-07-30T21:07:00.963Z,1.70
2022-07-30T21:09:49.743Z,1.40
2022-07-30T21:12:20.088Z,1.80
2022-07-30T21:15:01.198Z,1.80
2022-07-30T21:17:29.901Z,1.70
2022-07-30T21:19:58.540Z,1.73
2022-07-30T21:22:26.785Z,1.87
2022-07-30T21:24:54.974Z,1.97
2022-07-30T21:27:24.576Z,2.60
2022-07-30T21:29:58.388Z,2.57
2022-07-30T21:32:28.157Z,2.50
2022-07-30T21:34:56.582Z,2.40
2022-07-30T21:37:26.984Z,2.93
2022-07-30T21:40:06.369Z,2.60
2022-07-30T21:42:48.587Z,2.57
2022-07-30T21:45:17.207Z,3.43
2022-07-30T21:50:34.087Z,2.40
2022-07-30T21:53:02.295Z,1.97
2022-07-30T21:55:33.399Z,2.27
2022-07-30T21:58:08.850Z,2.60
2022-07-30T22:01:04.122Z,2.80
2022-07-30T22:04:03.633Z,3.33
2022-07-30T22:06:33.570Z,3.63
2022-07-30T22:09:03.457Z,3.67
2022-07-30T22:11:42.407Z,3.67
2022-07-30T22:14:12.622Z,4.30
2022-07-30T22:16:44.624Z,4.70
2022-07-30T22:19:15.181Z,4.80
2022-07-30T22:21:46.500Z,5.93
2022-07-30T22:24:28.909Z,6.03
2022-07-30T22:26:59.877Z,5.43
2022-07-30T22:29:34.540Z,4.50
2022-07-30T22:32:06.274Z,6.50
2022-07-30T22:34:36.308Z,5.60
2022-07-30T22:37:04.504Z,5.87
2022-07-30T22:39:50.281Z,6.50
2022-07-30T22:42:20.020Z,5.33
2022-07-30T22:44:49.635Z,5.27
2022-07-30T22:47:21.742Z,5.10
2022-07-30T22:50:08.342Z,4.43
2022-07-30T22:52:38.635Z,4.67
2022-07-30T22:55:09.077Z,4.47
2022-07-30T22:57:40.171Z,4.50
2022-07-30T23:00:13.732Z,3.57
2022-07-30T23:02:42.939Z,3.17
2022-07-30T23:05:11.726Z,3.63
2022-07-30T23:07:40.540Z,4.10
2022-07-30T23:10:12.387Z,3.60
2022-07-30T23:12:17.300Z,1.93
2022-07-30T23:12:27.744Z,2.50
2022-07-30T23:12:48.914Z,3.70
2022-07-30T23:15:18.655Z,6.20
2022-07-30T23:17:47.061Z,6.00
2022-07-30T23:20:18.274Z,5.33
2022-07-30T23:22:46.501Z,7.17
2022-07-30T23:25:14.703Z,6.40
2022-07-30T23:27:43.171Z,5.70
2022-07-30T23:30:12.505Z,5.73
2022-07-30T23:32:42.182Z,6.00
2022-07-30T23:35:11.128Z,5.77
2022-07-30T23:37:48.072Z,5.80
2022-07-30T23:40:18.508Z,7.30
2022-07-30T23:42:47.094Z,8.37
2022-07-30T23:45:15.259Z,6.90
2022-07-30T23:48:00.397Z,6.80
2022-07-30T23:50:30.625Z,5.73
2022-07-30T23:52:58.913Z,5.87
2022-07-30T23:55:28.007Z,5.80
2022-07-30T23:57:56.360Z,6.13
